Terminal Aerodrome Forecast
Issued by NWS Wilmington, OH

Home | Current Version | Previous Version | Text Only | Print | Product List | Glossary On
Versions: 1 2 3 4 5 6 7 8 9 10 11 12 13 14 15 16 17 18 19 20 21 22 23 24 25 26 27
000
FTUS41 KILN 221100
TAFCVG
TAF
KCVG 221125Z 2212/2318 12006KT P6SM SCT015 OVC050
      TEMPO 2214/2216 BKN015
     FM222000 12011KT P6SM SCT035 BKN080
     FM230300 13010KT P6SM -RA SCT015 OVC035
     FM230600 14010KT 3SM -RA BR OVC015
      TEMPO 2306/2309 OVC008
     FM231300 18010KT P6SM VCSH BKN015=

USA.gov is the U.S. government's official web portal to all federal, state and local government web resources and services.